sensor_id;sensor_type;location;lat;lon;timestamp;P1;durP1;ratioP1;P2;durP2;ratioP2
70825;SDS011;58446;41.490;22.098;2022-09-12T00:01:21;6.60;;;3.50;;
70825;SDS011;58446;41.490;22.098;2022-09-12T00:03:50;6.30;;;4.38;;
70825;SDS011;58446;41.490;22.098;2022-09-12T00:06:24;6.22;;;3.67;;
70825;SDS011;58446;41.490;22.098;2022-09-12T00:08:56;6.03;;;3.60;;
70825;SDS011;58446;41.490;22.098;2022-09-12T00:11:23;6.87;;;3.70;;
70825;SDS011;58446;41.490;22.098;2022-09-12T00:13:50;7.13;;;3.65;;
70825;SDS011;58446;41.490;22.098;2022-09-12T00:16:20;6.28;;;3.55;;
70825;SDS011;58446;41.490;22.098;2022-09-12T00:18:48;7.18;;;3.50;;
70825;SDS011;58446;41.490;22.098;2022-09-12T00:21:16;6.80;;;4.15;;
70825;SDS011;58446;41.490;22.098;2022-09-12T00:23:42;7.50;;;3.33;;
70825;SDS011;58446;41.490;22.098;2022-09-12T00:26:08;6.00;;;3.33;;
70825;SDS011;58446;41.490;22.098;2022-09-12T00:28:34;6.82;;;3.80;;
70825;SDS011;58446;41.490;22.098;2022-09-12T00:31:08;6.75;;;3.70;;
70825;SDS011;58446;41.490;22.098;2022-09-12T00:33:38;6.53;;;3.75;;
70825;SDS011;58446;41.490;22.098;2022-09-12T00:36:06;10.03;;;4.10;;
70825;SDS011;58446;41.490;22.098;2022-09-12T00:38:34;6.28;;;3.30;;
70825;SDS011;58446;41.490;22.098;2022-09-12T00:41:05;7.07;;;3.05;;
70825;SDS011;58446;41.490;22.098;2022-09-12T00:43:49;6.40;;;3.60;;
70825;SDS011;58446;41.490;22.098;2022-09-12T00:46:25;6.82;;;3.90;;
70825;SDS011;58446;41.490;22.098;2022-09-12T00:51:39;6.13;;;3.60;;
70825;SDS011;58446;41.490;22.098;2022-09-12T00:54:11;6.38;;;3.13;;
70825;SDS011;58446;41.490;22.098;2022-09-12T00:56:40;7.93;;;3.72;;
70825;SDS011;58446;41.490;22.098;2022-09-12T00:59:14;7.82;;;4.13;;
70825;SDS011;58446;41.490;22.098;2022-09-12T01:01:50;7.33;;;3.63;;
70825;SDS011;58446;41.490;22.098;2022-09-12T01:04:17;7.18;;;3.60;;
70825;SDS011;58446;41.490;22.098;2022-09-12T01:06:46;6.13;;;3.67;;
70825;SDS011;58446;41.490;22.098;2022-09-12T01:09:15;5.90;;;3.38;;
70825;SDS011;58446;41.490;22.098;2022-09-12T01:11:43;7.15;;;3.88;;
70825;SDS011;58446;41.490;22.098;2022-09-12T01:14:13;6.20;;;3.90;;
70825;SDS011;58446;41.490;22.098;2022-09-12T01:16:39;7.63;;;3.67;;
70825;SDS011;58446;41.490;22.098;2022-09-12T01:19:14;7.75;;;3.33;;
70825;SDS011;58446;41.490;22.098;2022-09-12T01:25:08;7.45;;;3.40;;
70825;SDS011;58446;41.490;22.098;2022-09-12T01:31:01;7.75;;;3.55;;
70825;SDS011;58446;41.490;22.098;2022-09-12T01:41:25;6.10;;;3.30;;
70825;SDS011;58446;41.490;22.098;2022-09-12T01:47:01;5.90;;;3.70;;
70825;SDS011;58446;41.490;22.098;2022-09-12T01:52:43;6.65;;;3.80;;
70825;SDS011;58446;41.490;22.098;2022-09-12T01:57:48;6.50;;;3.90;;
70825;SDS011;58446;41.490;22.098;2022-09-12T02:00:15;6.72;;;3.53;;
70825;SDS011;58446;41.490;22.098;2022-09-12T02:05:26;7.03;;;4.10;;
70825;SDS011;58446;41.490;22.098;2022-09-12T02:08:07;6.10;;;3.43;;
70825;SDS011;58446;41.490;22.098;2022-09-12T02:10:42;6.13;;;3.50;;
70825;SDS011;58446;41.490;22.098;2022-09-12T02:13:12;7.00;;;3.17;;
70825;SDS011;58446;41.490;22.098;2022-09-12T02:15:44;7.15;;;3.42;;
70825;SDS011;58446;41.490;22.098;2022-09-12T02:18:15;7.03;;;4.13;;
70825;SDS011;58446;41.490;22.098;2022-09-12T02:20:44;6.60;;;3.47;;
70825;SDS011;58446;41.490;22.098;2022-09-12T02:23:13;5.93;;;3.42;;
70825;SDS011;58446;41.490;22.098;2022-09-12T02:25:45;6.75;;;3.95;;
70825;SDS011;58446;41.490;22.098;2022-09-12T02:28:17;6.43;;;3.20;;
70825;SDS011;58446;41.490;22.098;2022-09-12T02:30:50;6.68;;;3.47;;
70825;SDS011;58446;41.490;22.098;2022-09-12T02:33:39;7.40;;;3.70;;
70825;SDS011;58446;41.490;22.098;2022-09-12T02:36:11;6.30;;;3.50;;
70825;SDS011;58446;41.490;22.098;2022-09-12T02:38:48;6.35;;;3.33;;
70825;SDS011;58446;41.490;22.098;2022-09-12T02:41:16;7.22;;;4.10;;
70825;SDS011;58446;41.490;22.098;2022-09-12T02:43:45;7.78;;;4.82;;
70825;SDS011;58446;41.490;22.098;2022-09-12T02:46:13;6.80;;;3.70;;
70825;SDS011;58446;41.490;22.098;2022-09-12T02:48:43;6.53;;;3.33;;
70825;SDS011;58446;41.490;22.098;2022-09-12T02:51:09;8.20;;;4.05;;
70825;SDS011;58446;41.490;22.098;2022-09-12T02:53:35;6.87;;;3.90;;
70825;SDS011;58446;41.490;22.098;2022-09-12T02:56:02;7.32;;;4.30;;
70825;SDS011;58446;41.490;22.098;2022-09-12T02:58:31;6.32;;;3.88;;
70825;SDS011;58446;41.490;22.098;2022-09-12T03:09:12;6.70;;;3.30;;
70825;SDS011;58446;41.490;22.098;2022-09-12T03:11:48;6.70;;;3.80;;
70825;SDS011;58446;41.490;22.098;2022-09-12T03:17:43;7.37;;;3.80;;
70825;SDS011;58446;41.490;22.098;2022-09-12T03:20:15;7.13;;;3.53;;
70825;SDS011;58446;41.490;22.098;2022-09-12T03:22:53;7.50;;;3.85;;
70825;SDS011;58446;41.490;22.098;2022-09-12T03:25:24;6.38;;;3.47;;
70825;SDS011;58446;41.490;22.098;2022-09-12T03:27:55;6.47;;;4.00;;
70825;SDS011;58446;41.490;22.098;2022-09-12T03:30:24;6.67;;;4.30;;
70825;SDS011;58446;41.490;22.098;2022-09-12T03:32:51;7.22;;;3.30;;
70825;SDS011;58446;41.490;22.098;2022-09-12T03:35:19;6.50;;;3.80;;
70825;SDS011;58446;41.490;22.098;2022-09-12T03:37:47;6.75;;;3.85;;
70825;SDS011;58446;41.490;22.098;2022-09-12T03:40:13;8.03;;;3.90;;
70825;SDS011;58446;41.490;22.098;2022-09-12T03:42:39;7.13;;;4.03;;
70825;SDS011;58446;41.490;22.098;2022-09-12T03:45:06;7.00;;;3.92;;
70825;SDS011;58446;41.490;22.098;2022-09-12T03:47:33;7.53;;;4.03;;
70825;SDS011;58446;41.490;22.098;2022-09-12T03:49:59;7.43;;;3.92;;
70825;SDS011;58446;41.490;22.098;2022-09-12T03:52:25;6.73;;;3.03;;
70825;SDS011;58446;41.490;22.098;2022-09-12T03:54:51;6.68;;;4.13;;
70825;SDS011;58446;41.490;22.098;2022-09-12T03:57:17;6.72;;;4.20;;
70825;SDS011;58446;41.490;22.098;2022-09-12T03:59:43;7.77;;;4.23;;
70825;SDS011;58446;41.490;22.098;2022-09-12T04:02:09;8.75;;;5.10;;
70825;SDS011;58446;41.490;22.098;2022-09-12T04:04:37;7.32;;;4.15;;
70825;SDS011;58446;41.490;22.098;2022-09-12T04:07:05;7.40;;;4.37;;
70825;SDS011;58446;41.490;22.098;2022-09-12T04:09:30;7.07;;;4.53;;
70825;SDS011;58446;41.490;22.098;2022-09-12T04:11:56;7.43;;;4.50;;
70825;SDS011;58446;41.490;22.098;2022-09-12T04:14:22;9.25;;;4.35;;
70825;SDS011;58446;41.490;22.098;2022-09-12T04:16:47;7.70;;;4.40;;
70825;SDS011;58446;41.490;22.098;2022-09-12T04:19:13;7.32;;;4.25;;
70825;SDS011;58446;41.490;22.098;2022-09-12T04:21:39;7.77;;;4.33;;
70825;SDS011;58446;41.490;22.098;2022-09-12T04:24:05;7.35;;;4.18;;
70825;SDS011;58446;41.490;22.098;2022-09-12T04:26:31;8.80;;;4.90;;
70825;SDS011;58446;41.490;22.098;2022-09-12T04:28:57;7.50;;;4.87;;
70825;SDS011;58446;41.490;22.098;2022-09-12T04:31:22;11.10;;;5.65;;
70825;SDS011;58446;41.490;22.098;2022-09-12T04:33:53;7.32;;;4.25;;
70825;SDS011;58446;41.490;22.098;2022-09-12T04:36:19;8.02;;;5.28;;
70825;SDS011;58446;41.490;22.098;2022-09-12T04:38:47;8.50;;;4.63;;
70825;SDS011;58446;41.490;22.098;2022-09-12T04:41:14;8.35;;;4.85;;
70825;SDS011;58446;41.490;22.098;2022-09-12T04:43:42;8.48;;;5.35;;
70825;SDS011;58446;41.490;22.098;2022-09-12T04:46:08;8.77;;;5.20;;
70825;SDS011;58446;41.490;22.098;2022-09-12T04:48:36;9.88;;;6.75;;
70825;SDS011;58446;41.490;22.098;2022-09-12T04:51:12;8.13;;;5.87;;
70825;SDS011;58446;41.490;22.098;2022-09-12T04:53:40;10.15;;;5.47;;
70825;SDS011;58446;41.490;22.098;2022-09-12T04:56:09;10.30;;;6.35;;
70825;SDS011;58446;41.490;22.098;2022-09-12T04:58:36;10.02;;;5.30;;
70825;SDS011;58446;41.490;22.098;2022-09-12T05:01:03;10.15;;;5.90;;
70825;SDS011;58446;41.490;22.098;2022-09-12T05:03:30;8.80;;;5.40;;
70825;SDS011;58446;41.490;22.098;2022-09-12T05:05:56;9.68;;;5.57;;
70825;SDS011;58446;41.490;22.098;2022-09-12T05:08:22;10.30;;;5.88;;
70825;SDS011;58446;41.490;22.098;2022-09-12T05:10:48;9.27;;;4.90;;
70825;SDS011;58446;41.490;22.098;2022-09-12T05:13:13;9.43;;;4.40;;
70825;SDS011;58446;41.490;22.098;2022-09-12T05:15:39;8.40;;;5.30;;
70825;SDS011;58446;41.490;22.098;2022-09-12T05:18:04;9.02;;;4.88;;
70825;SDS011;58446;41.490;22.098;2022-09-12T05:20:31;9.10;;;4.70;;
70825;SDS011;58446;41.490;22.098;2022-09-12T05:22:57;7.80;;;4.72;;
70825;SDS011;58446;41.490;22.098;2022-09-12T05:25:24;8.37;;;4.77;;
70825;SDS011;58446;41.490;22.098;2022-09-12T05:27:52;8.32;;;4.80;;
70825;SDS011;58446;41.490;22.098;2022-09-12T05:30:18;7.88;;;4.60;;
70825;SDS011;58446;41.490;22.098;2022-09-12T05:32:44;8.60;;;4.10;;
70825;SDS011;58446;41.490;22.098;2022-09-12T05:35:09;7.25;;;3.97;;
70825;SDS011;58446;41.490;22.098;2022-09-12T05:37:36;7.03;;;4.68;;
70825;SDS011;58446;41.490;22.098;2022-09-12T05:40:01;7.07;;;4.37;;
70825;SDS011;58446;41.490;22.098;2022-09-12T05:42:31;7.18;;;4.28;;
70825;SDS011;58446;41.490;22.098;2022-09-12T05:44:57;7.20;;;4.07;;
70825;SDS011;58446;41.490;22.098;2022-09-12T05:47:23;7.27;;;4.07;;
70825;SDS011;58446;41.490;22.098;2022-09-12T05:49:48;8.38;;;4.18;;
70825;SDS011;58446;41.490;22.098;2022-09-12T05:52:15;9.68;;;4.80;;
70825;SDS011;58446;41.490;22.098;2022-09-12T05:54:41;6.87;;;4.37;;
70825;SDS011;58446;41.490;22.098;2022-09-12T05:57:06;8.50;;;4.60;;
70825;SDS011;58446;41.490;22.098;2022-09-12T05:59:32;7.47;;;4.53;;
70825;SDS011;58446;41.490;22.098;2022-09-12T06:01:58;6.18;;;3.97;;
70825;SDS011;58446;41.490;22.098;2022-09-12T06:04:24;7.35;;;4.10;;
70825;SDS011;58446;41.490;22.098;2022-09-12T06:06:50;7.27;;;3.67;;
70825;SDS011;58446;41.490;22.098;2022-09-12T06:09:16;8.73;;;4.70;;
70825;SDS011;58446;41.490;22.098;2022-09-12T06:11:42;6.82;;;3.70;;
70825;SDS011;58446;41.490;22.098;2022-09-12T06:14:10;8.00;;;4.13;;
70825;SDS011;58446;41.490;22.098;2022-09-12T06:16:38;8.50;;;4.03;;
70825;SDS011;58446;41.490;22.098;2022-09-12T06:19:06;6.72;;;3.72;;
70825;SDS011;58446;41.490;22.098;2022-09-12T06:21:36;7.43;;;4.40;;
70825;SDS011;58446;41.490;22.098;2022-09-12T06:24:03;7.28;;;4.18;;
70825;SDS011;58446;41.490;22.098;2022-09-12T06:26:29;7.35;;;4.30;;
70825;SDS011;58446;41.490;22.098;2022-09-12T06:28:55;8.20;;;3.97;;
70825;SDS011;58446;41.490;22.098;2022-09-12T06:31:25;6.95;;;4.05;;
70825;SDS011;58446;41.490;22.098;2022-09-12T06:33:53;9.88;;;4.55;;
70825;SDS011;58446;41.490;22.098;2022-09-12T06:36:23;7.82;;;4.40;;
70825;SDS011;58446;41.490;22.098;2022-09-12T06:38:54;8.23;;;3.33;;
70825;SDS011;58446;41.490;22.098;2022-09-12T06:41:22;6.13;;;3.55;;
70825;SDS011;58446;41.490;22.098;2022-09-12T06:43:48;7.80;;;3.53;;
70825;SDS011;58446;41.490;22.098;2022-09-12T06:46:15;8.55;;;3.45;;
70825;SDS011;58446;41.490;22.098;2022-09-12T06:48:41;10.05;;;4.22;;
70825;SDS011;58446;41.490;22.098;2022-09-12T06:51:11;7.97;;;3.43;;
70825;SDS011;58446;41.490;22.098;2022-09-12T06:53:39;8.73;;;3.75;;
70825;SDS011;58446;41.490;22.098;2022-09-12T06:56:15;7.13;;;3.33;;
70825;SDS011;58446;41.490;22.098;2022-09-12T06:58:45;6.35;;;3.25;;
70825;SDS011;58446;41.490;22.098;2022-09-12T07:01:13;7.30;;;3.53;;
70825;SDS011;58446;41.490;22.098;2022-09-12T07:03:41;5.50;;;2.80;;
70825;SDS011;58446;41.490;22.098;2022-09-12T07:06:11;6.57;;;3.22;;
70825;SDS011;58446;41.490;22.098;2022-09-12T07:08:39;6.32;;;3.50;;
70825;SDS011;58446;41.490;22.098;2022-09-12T07:11:08;6.75;;;3.08;;
70825;SDS011;58446;41.490;22.098;2022-09-12T07:13:48;5.82;;;3.22;;
70825;SDS011;58446;41.490;22.098;2022-09-12T07:16:16;6.00;;;2.90;;
70825;SDS011;58446;41.490;22.098;2022-09-12T07:18:42;6.47;;;3.72;;
70825;SDS011;58446;41.490;22.098;2022-09-12T07:21:11;6.18;;;3.25;;
70825;SDS011;58446;41.490;22.098;2022-09-12T07:23:39;5.85;;;2.97;;
70825;SDS011;58446;41.490;22.098;2022-09-12T07:26:06;6.95;;;3.60;;
70825;SDS011;58446;41.490;22.098;2022-09-12T07:28:34;9.77;;;3.20;;
70825;SDS011;58446;41.490;22.098;2022-09-12T07:31:04;5.60;;;2.85;;
70825;SDS011;58446;41.490;22.098;2022-09-12T07:33:31;6.60;;;3.08;;
70825;SDS011;58446;41.490;22.098;2022-09-12T07:36:01;7.00;;;3.40;;
70825;SDS011;58446;41.490;22.098;2022-09-12T07:38:31;5.63;;;3.30;;
70825;SDS011;58446;41.490;22.098;2022-09-12T07:40:57;5.60;;;3.17;;
70825;SDS011;58446;41.490;22.098;2022-09-12T07:43:23;6.60;;;3.97;;
70825;SDS011;58446;41.490;22.098;2022-09-12T07:45:56;6.28;;;3.40;;
70825;SDS011;58446;41.490;22.098;2022-09-12T07:48:22;6.40;;;3.60;;
70825;SDS011;58446;41.490;22.098;2022-09-12T07:50:56;7.50;;;4.30;;
70825;SDS011;58446;41.490;22.098;2022-09-12T07:53:29;7.82;;;4.10;;
70825;SDS011;58446;41.490;22.098;2022-09-12T07:55:57;7.75;;;3.72;;
70825;SDS011;58446;41.490;22.098;2022-09-12T07:58:23;10.20;;;4.23;;
70825;SDS011;58446;41.490;22.098;2022-09-12T08:00:49;7.40;;;4.05;;
70825;SDS011;58446;41.490;22.098;2022-09-12T08:03:15;6.97;;;3.70;;
70825;SDS011;58446;41.490;22.098;2022-09-12T08:05:41;7.23;;;3.50;;
70825;SDS011;58446;41.490;22.098;2022-09-12T08:08:07;6.22;;;3.35;;
70825;SDS011;58446;41.490;22.098;2022-09-12T08:10:34;6.78;;;3.92;;
70825;SDS011;58446;41.490;22.098;2022-09-12T08:13:00;6.78;;;4.22;;
70825;SDS011;58446;41.490;22.098;2022-09-12T08:15:27;8.70;;;4.13;;
70825;SDS011;58446;41.490;22.098;2022-09-12T08:17:52;7.03;;;4.87;;
70825;SDS011;58446;41.490;22.098;2022-09-12T08:20:18;6.75;;;4.97;;
70825;SDS011;58446;41.490;22.098;2022-09-12T08:22:44;6.53;;;4.30;;
70825;SDS011;58446;41.490;22.098;2022-09-12T08:25:10;6.85;;;4.60;;
70825;SDS011;58446;41.490;22.098;2022-09-12T08:27:36;7.90;;;4.25;;
70825;SDS011;58446;41.490;22.098;2022-09-12T08:30:02;8.03;;;4.83;;
70825;SDS011;58446;41.490;22.098;2022-09-12T08:32:30;7.75;;;4.85;;
70825;SDS011;58446;41.490;22.098;2022-09-12T08:34:56;6.35;;;3.58;;
70825;SDS011;58446;41.490;22.098;2022-09-12T08:37:22;8.20;;;4.15;;
70825;SDS011;58446;41.490;22.098;2022-09-12T08:39:47;7.03;;;4.10;;
70825;SDS011;58446;41.490;22.098;2022-09-12T08:42:21;6.60;;;4.05;;
70825;SDS011;58446;41.490;22.098;2022-09-12T08:45:12;6.63;;;3.97;;
70825;SDS011;58446;41.490;22.098;2022-09-12T08:47:42;6.35;;;3.40;;
70825;SDS011;58446;41.490;22.098;2022-09-12T08:50:13;8.55;;;3.75;;
70825;SDS011;58446;41.490;22.098;2022-09-12T08:52:46;7.35;;;4.30;;
70825;SDS011;58446;41.490;22.098;2022-09-12T08:57:57;6.30;;;3.80;;
70825;SDS011;58446;41.490;22.098;2022-09-12T09:00:26;7.20;;;3.90;;
70825;SDS011;58446;41.490;22.098;2022-09-12T09:09:03;7.22;;;4.47;;
70825;SDS011;58446;41.490;22.098;2022-09-12T09:11:49;7.77;;;4.53;;
70825;SDS011;58446;41.490;22.098;2022-09-12T09:17:21;8.82;;;4.95;;
70825;SDS011;58446;41.490;22.098;2022-09-12T09:22:48;7.60;;;5.00;;
70825;SDS011;58446;41.490;22.098;2022-09-12T09:25:23;6.37;;;3.60;;
70825;SDS011;58446;41.490;22.098;2022-09-12T09:27:55;8.90;;;5.15;;
70825;SDS011;58446;41.490;22.098;2022-09-12T09:30:22;7.60;;;5.22;;
70825;SDS011;58446;41.490;22.098;2022-09-12T09:32:49;8.05;;;5.40;;
70825;SDS011;58446;41.490;22.098;2022-09-12T09:40:50;7.60;;;5.32;;
70825;SDS011;58446;41.490;22.098;2022-09-12T09:43:22;7.30;;;5.40;;
70825;SDS011;58446;41.490;22.098;2022-09-12T09:45:53;7.82;;;4.70;;
70825;SDS011;58446;41.490;22.098;2022-09-12T09:50:53;7.38;;;4.20;;
70825;SDS011;58446;41.490;22.098;2022-09-12T09:56:30;7.05;;;4.50;;
70825;SDS011;58446;41.490;22.098;2022-09-12T09:59:11;11.38;;;4.63;;
70825;SDS011;58446;41.490;22.098;2022-09-12T10:01:46;7.43;;;4.50;;
70825;SDS011;58446;41.490;22.098;2022-09-12T10:04:16;6.63;;;4.30;;
70825;SDS011;58446;41.490;22.098;2022-09-12T10:06:49;6.25;;;4.60;;
70825;SDS011;58446;41.490;22.098;2022-09-12T10:09:20;8.27;;;4.50;;
70825;SDS011;58446;41.490;22.098;2022-09-12T10:12:24;7.53;;;4.60;;
70825;SDS011;58446;41.490;22.098;2022-09-12T10:14:59;7.30;;;4.10;;
70825;SDS011;58446;41.490;22.098;2022-09-12T10:17:27;7.30;;;4.20;;
70825;SDS011;58446;41.490;22.098;2022-09-12T10:20:28;6.65;;;4.45;;
70825;SDS011;58446;41.490;22.098;2022-09-12T10:25:46;7.22;;;4.40;;
70825;SDS011;58446;41.490;22.098;2022-09-12T10:28:22;6.53;;;4.07;;
70825;SDS011;58446;41.490;22.098;2022-09-12T10:30:53;6.78;;;4.28;;
70825;SDS011;58446;41.490;22.098;2022-09-12T10:33:20;6.78;;;3.53;;
70825;SDS011;58446;41.490;22.098;2022-09-12T10:35:49;7.22;;;4.10;;
70825;SDS011;58446;41.490;22.098;2022-09-12T10:38:20;6.90;;;4.63;;
70825;SDS011;58446;41.490;22.098;2022-09-12T10:41:00;8.73;;;3.57;;
70825;SDS011;58446;41.490;22.098;2022-09-12T10:45:58;8.70;;;3.70;;
70825;SDS011;58446;41.490;22.098;2022-09-12T10:49:11;5.63;;;3.10;;
70825;SDS011;58446;41.490;22.098;2022-09-12T10:51:49;6.70;;;4.03;;
70825;SDS011;58446;41.490;22.098;2022-09-12T10:54:16;6.03;;;3.73;;
70825;SDS011;58446;41.490;22.098;2022-09-12T11:08:14;7.93;;;4.40;;
70825;SDS011;58446;41.490;22.098;2022-09-12T11:10:59;7.10;;;4.10;;
70825;SDS011;58446;41.490;22.098;2022-09-12T11:21:41;10.10;;;4.40;;
70825;SDS011;58446;41.490;22.098;2022-09-12T11:24:35;7.25;;;4.03;;
70825;SDS011;58446;41.490;22.098;2022-09-12T11:30:10;7.95;;;3.67;;
70825;SDS011;58446;41.490;22.098;2022-09-12T11:35:31;7.70;;;4.80;;
70825;SDS011;58446;41.490;22.098;2022-09-12T11:40:52;7.00;;;4.28;;
70825;SDS011;58446;41.490;22.098;2022-09-12T11:46:41;7.03;;;4.60;;
70825;SDS011;58446;41.490;22.098;2022-09-12T11:57:07;6.80;;;4.10;;
70825;SDS011;58446;41.490;22.098;2022-09-12T11:59:42;7.47;;;4.00;;
70825;SDS011;58446;41.490;22.098;2022-09-12T12:02:14;7.35;;;4.63;;
70825;SDS011;58446;41.490;22.098;2022-09-12T12:05:14;7.63;;;4.28;;
70825;SDS011;58446;41.490;22.098;2022-09-12T12:07:58;6.68;;;4.20;;
70825;SDS011;58446;41.490;22.098;2022-09-12T12:13:08;7.15;;;4.55;;
70825;SDS011;58446;41.490;22.098;2022-09-12T12:15:39;7.70;;;4.63;;
70825;SDS011;58446;41.490;22.098;2022-09-12T12:18:24;6.90;;;3.67;;
70825;SDS011;58446;41.490;22.098;2022-09-12T12:20:52;7.55;;;5.15;;
70825;SDS011;58446;41.490;22.098;2022-09-12T12:23:21;6.97;;;4.50;;
70825;SDS011;58446;41.490;22.098;2022-09-12T12:25:56;6.82;;;4.22;;
70825;SDS011;58446;41.490;22.098;2022-09-12T12:31:14;7.85;;;4.90;;
70825;SDS011;58446;41.490;22.098;2022-09-12T12:36:10;7.53;;;5.43;;
70825;SDS011;58446;41.490;22.098;2022-09-12T12:38:58;6.97;;;4.22;;
70825;SDS011;58446;41.490;22.098;2022-09-12T12:43:52;6.87;;;4.33;;
70825;SDS011;58446;41.490;22.098;2022-09-12T12:46:20;8.27;;;3.80;;
70825;SDS011;58446;41.490;22.098;2022-09-12T12:51:26;5.95;;;3.47;;
70825;SDS011;58446;41.490;22.098;2022-09-12T12:53:56;6.97;;;4.40;;
70825;SDS011;58446;41.490;22.098;2022-09-12T12:59:14;7.30;;;3.80;;
70825;SDS011;58446;41.490;22.098;2022-09-12T13:01:46;6.03;;;3.70;;
70825;SDS011;58446;41.490;22.098;2022-09-12T13:04:16;6.13;;;3.50;;
70825;SDS011;58446;41.490;22.098;2022-09-12T13:06:45;7.80;;;4.18;;
70825;SDS011;58446;41.490;22.098;2022-09-12T13:09:29;7.50;;;3.87;;
70825;SDS011;58446;41.490;22.098;2022-09-12T13:12:05;6.85;;;4.45;;
70825;SDS011;58446;41.490;22.098;2022-09-12T13:20:13;7.30;;;4.25;;
70825;SDS011;58446;41.490;22.098;2022-09-12T13:22:43;7.07;;;4.03;;
70825;SDS011;58446;41.490;22.098;2022-09-12T13:30:46;6.50;;;3.67;;
70825;SDS011;58446;41.490;22.098;2022-09-12T13:43:53;6.65;;;4.03;;
70825;SDS011;58446;41.490;22.098;2022-09-12T13:46:26;5.82;;;2.70;;
70825;SDS011;58446;41.490;22.098;2022-09-12T13:48:58;5.90;;;3.30;;
70825;SDS011;58446;41.490;22.098;2022-09-12T13:51:37;6.05;;;2.50;;
70825;SDS011;58446;41.490;22.098;2022-09-12T13:54:03;6.38;;;3.28;;
70825;SDS011;58446;41.490;22.098;2022-09-12T13:56:29;5.45;;;2.67;;
70825;SDS011;58446;41.490;22.098;2022-09-12T13:58:56;5.78;;;3.20;;
70825;SDS011;58446;41.490;22.098;2022-09-12T14:01:35;6.63;;;3.03;;
70825;SDS011;58446;41.490;22.098;2022-09-12T14:04:09;6.03;;;2.90;;
70825;SDS011;58446;41.490;22.098;2022-09-12T14:07:00;5.47;;;3.00;;
70825;SDS011;58446;41.490;22.098;2022-09-12T14:09:36;5.50;;;2.80;;
70825;SDS011;58446;41.490;22.098;2022-09-12T14:12:04;6.88;;;2.83;;
70825;SDS011;58446;41.490;22.098;2022-09-12T14:14:49;5.53;;;2.53;;
70825;SDS011;58446;41.490;22.098;2022-09-12T14:20:00;5.35;;;2.70;;
70825;SDS011;58446;41.490;22.098;2022-09-12T14:22:29;5.70;;;3.00;;
70825;SDS011;58446;41.490;22.098;2022-09-12T14:24:55;5.82;;;3.20;;
70825;SDS011;58446;41.490;22.098;2022-09-12T14:27:25;7.17;;;2.30;;
70825;SDS011;58446;41.490;22.098;2022-09-12T14:30:01;5.97;;;2.70;;
70825;SDS011;58446;41.490;22.098;2022-09-12T14:32:27;5.50;;;2.30;;
70825;SDS011;58446;41.490;22.098;2022-09-12T14:37:37;5.57;;;2.22;;
70825;SDS011;58446;41.490;22.098;2022-09-12T14:40:11;5.43;;;2.72;;
70825;SDS011;58446;41.490;22.098;2022-09-12T14:42:44;5.97;;;2.83;;
70825;SDS011;58446;41.490;22.098;2022-09-12T14:45:17;6.45;;;2.40;;
70825;SDS011;58446;41.490;22.098;2022-09-12T14:47:51;7.77;;;2.37;;
70825;SDS011;58446;41.490;22.098;2022-09-12T14:50:20;6.28;;;2.22;;
70825;SDS011;58446;41.490;22.098;2022-09-12T14:53:20;5.57;;;2.55;;
70825;SDS011;58446;41.490;22.098;2022-09-12T14:55:50;5.65;;;2.53;;
70825;SDS011;58446;41.490;22.098;2022-09-12T14:58:22;5.78;;;2.53;;
70825;SDS011;58446;41.490;22.098;2022-09-12T15:01:00;4.87;;;2.00;;
70825;SDS011;58446;41.490;22.098;2022-09-12T15:06:27;5.60;;;2.35;;
70825;SDS011;58446;41.490;22.098;2022-09-12T15:08:58;5.50;;;2.55;;
70825;SDS011;58446;41.490;22.098;2022-09-12T15:11:27;9.70;;;2.60;;
70825;SDS011;58446;41.490;22.098;2022-09-12T15:13:53;5.70;;;2.20;;
70825;SDS011;58446;41.490;22.098;2022-09-12T15:16:19;5.55;;;1.92;;
70825;SDS011;58446;41.490;22.098;2022-09-12T15:18:45;5.38;;;2.33;;
70825;SDS011;58446;41.490;22.098;2022-09-12T15:21:12;5.03;;;2.60;;
70825;SDS011;58446;41.490;22.098;2022-09-12T15:23:43;5.03;;;2.40;;
70825;SDS011;58446;41.490;22.098;2022-09-12T15:26:14;5.13;;;2.35;;
70825;SDS011;58446;41.490;22.098;2022-09-12T15:28:44;5.70;;;2.42;;
70825;SDS011;58446;41.490;22.098;2022-09-12T15:31:27;6.38;;;2.75;;
70825;SDS011;58446;41.490;22.098;2022-09-12T15:33:54;5.33;;;2.03;;
70825;SDS011;58446;41.490;22.098;2022-09-12T15:36:22;5.47;;;2.38;;
70825;SDS011;58446;41.490;22.098;2022-09-12T15:38:48;5.18;;;2.50;;
70825;SDS011;58446;41.490;22.098;2022-09-12T15:41:17;5.85;;;2.60;;
70825;SDS011;58446;41.490;22.098;2022-09-12T15:43:44;4.88;;;2.05;;
70825;SDS011;58446;41.490;22.098;2022-09-12T15:46:12;5.50;;;2.53;;
70825;SDS011;58446;41.490;22.098;2022-09-12T15:48:39;6.07;;;2.55;;
70825;SDS011;58446;41.490;22.098;2022-09-12T15:51:07;4.82;;;2.13;;
70825;SDS011;58446;41.490;22.098;2022-09-12T15:53:42;5.22;;;2.63;;
70825;SDS011;58446;41.490;22.098;2022-09-12T15:56:09;5.63;;;1.83;;
70825;SDS011;58446;41.490;22.098;2022-09-12T15:58:34;4.90;;;2.58;;
70825;SDS011;58446;41.490;22.098;2022-09-12T16:01:00;6.13;;;2.88;;
70825;SDS011;58446;41.490;22.098;2022-09-12T16:03:27;6.32;;;3.03;;
70825;SDS011;58446;41.490;22.098;2022-09-12T16:05:54;6.97;;;2.20;;
70825;SDS011;58446;41.490;22.098;2022-09-12T16:08:21;4.90;;;2.35;;
70825;SDS011;58446;41.490;22.098;2022-09-12T16:10:48;5.47;;;2.90;;
70825;SDS011;58446;41.490;22.098;2022-09-12T16:13:18;5.72;;;2.70;;
70825;SDS011;58446;41.490;22.098;2022-09-12T16:15:44;8.47;;;2.50;;
70825;SDS011;58446;41.490;22.098;2022-09-12T16:18:09;6.60;;;1.90;;
70825;SDS011;58446;41.490;22.098;2022-09-12T16:20:37;4.50;;;1.60;;
70825;SDS011;58446;41.490;22.098;2022-09-12T16:23:04;5.93;;;2.30;;
70825;SDS011;58446;41.490;22.098;2022-09-12T16:25:30;5.53;;;2.17;;
70825;SDS011;58446;41.490;22.098;2022-09-12T16:27:56;5.97;;;2.10;;
70825;SDS011;58446;41.490;22.098;2022-09-12T16:30:22;5.60;;;2.27;;
70825;SDS011;58446;41.490;22.098;2022-09-12T16:32:47;6.63;;;2.35;;
70825;SDS011;58446;41.490;22.098;2022-09-12T16:35:13;5.17;;;2.00;;
70825;SDS011;58446;41.490;22.098;2022-09-12T16:37:39;4.57;;;1.83;;
70825;SDS011;58446;41.490;22.098;2022-09-12T16:40:05;4.93;;;1.73;;
70825;SDS011;58446;41.490;22.098;2022-09-12T16:42:31;4.72;;;1.65;;
70825;SDS011;58446;41.490;22.098;2022-09-12T16:44:57;5.75;;;2.65;;
70825;SDS011;58446;41.490;22.098;2022-09-12T16:47:23;7.03;;;2.43;;
70825;SDS011;58446;41.490;22.098;2022-09-12T16:49:48;5.70;;;2.47;;
70825;SDS011;58446;41.490;22.098;2022-09-12T16:52:16;6.22;;;2.50;;
70825;SDS011;58446;41.490;22.098;2022-09-12T16:54:43;6.30;;;2.97;;
70825;SDS011;58446;41.490;22.098;2022-09-12T16:57:09;5.38;;;2.33;;
70825;SDS011;58446;41.490;22.098;2022-09-12T16:59:35;5.88;;;2.50;;
70825;SDS011;58446;41.490;22.098;2022-09-12T17:02:01;7.33;;;2.87;;
70825;SDS011;58446;41.490;22.098;2022-09-12T17:04:27;5.30;;;2.22;;
70825;SDS011;58446;41.490;22.098;2022-09-12T17:06:53;5.82;;;2.90;;
70825;SDS011;58446;41.490;22.098;2022-09-12T17:09:19;5.03;;;2.20;;
70825;SDS011;58446;41.490;22.098;2022-09-12T17:11:46;5.03;;;2.33;;
70825;SDS011;58446;41.490;22.098;2022-09-12T17:14:12;6.82;;;2.38;;
70825;SDS011;58446;41.490;22.098;2022-09-12T17:16:42;5.90;;;2.50;;
70825;SDS011;58446;41.490;22.098;2022-09-12T17:19:11;5.90;;;2.53;;
70825;SDS011;58446;41.490;22.098;2022-09-12T17:21:40;7.90;;;2.70;;
70825;SDS011;58446;41.490;22.098;2022-09-12T17:24:06;6.03;;;2.25;;
70825;SDS011;58446;41.490;22.098;2022-09-12T17:26:31;5.93;;;3.08;;